sensor_id;sensor_type;location;lat;lon;timestamp;pressure;altitude;pressure_sealevel;temperature;humidity
23643;BME280;11998;55.788;37.572;2022-08-19T00:00:13;99645.34;;;21.74;100.00
23643;BME280;11998;55.788;37.572;2022-08-19T00:01:14;99641.56;;;21.77;100.00
23643;BME280;11998;55.788;37.572;2022-08-19T00:02:15;99644.16;;;21.78;100.00
23643;BME280;11998;55.788;37.572;2022-08-19T00:03:15;99647.06;;;21.75;100.00
23643;BME280;11998;55.788;37.572;2022-08-19T00:04:18;99650.53;;;21.77;100.00
23643;BME280;11998;55.788;37.572;2022-08-19T00:05:20;99646.84;;;21.78;100.00
23643;BME280;11998;55.788;37.572;2022-08-19T00:06:21;99652.25;;;21.78;100.00
23643;BME280;11998;55.788;37.572;2022-08-19T00:07:22;99654.94;;;21.78;100.00
23643;BME280;11998;55.788;37.572;2022-08-19T00:08:22;99657.66;;;21.78;100.00
23643;BME280;11998;55.788;37.572;2022-08-19T00:09:23;99656.78;;;21.78;100.00
23643;BME280;11998;55.788;37.572;2022-08-19T00:10:24;99664.00;;;21.77;100.00
23643;BME280;11998;55.788;37.572;2022-08-19T00:11:26;99646.84;;;21.78;100.00
23643;BME280;11998;55.788;37.572;2022-08-19T00:12:27;99655.91;;;21.77;100.00
23643;BME280;11998;55.788;37.572;2022-08-19T00:13:28;99660.56;;;21.75;100.00
23643;BME280;11998;55.788;37.572;2022-08-19T00:14:29;99657.84;;;21.75;100.00
23643;BME280;11998;55.788;37.572;2022-08-19T00:15:33;99662.28;;;21.76;100.00
23643;BME280;11998;55.788;37.572;2022-08-19T00:16:34;99657.84;;;21.75;100.00
23643;BME280;11998;55.788;37.572;2022-08-19T00:17:34;99666.81;;;21.76;100.00
23643;BME280;11998;55.788;37.572;2022-08-19T00:18:35;99663.47;;;21.72;100.00
23643;BME280;11998;55.788;37.572;2022-08-19T00:19:36;99664.22;;;21.74;100.00
23643;BME280;11998;55.788;37.572;2022-08-19T00:20:37;99665.94;;;21.75;100.00
23643;BME280;11998;55.788;37.572;2022-08-19T00:21:40;99664.88;;;21.78;100.00
23643;BME280;11998;55.788;37.572;2022-08-19T00:22:41;99675.75;;;21.76;100.00
23643;BME280;11998;55.788;37.572;2022-08-19T00:23:42;99661.53;;;21.74;100.00
23643;BME280;11998;55.788;37.572;2022-08-19T00:24:46;99662.59;;;21.72;100.00
23643;BME280;11998;55.788;37.572;2022-08-19T00:25:49;99663.47;;;21.72;100.00
23643;BME280;11998;55.788;37.572;2022-08-19T00:26:51;99660.75;;;21.72;100.00
23643;BME280;11998;55.788;37.572;2022-08-19T00:27:52;99656.34;;;21.71;100.00
23643;BME280;11998;55.788;37.572;2022-08-19T00:28:53;99658.06;;;21.72;100.00
23643;BME280;11998;55.788;37.572;2022-08-19T00:29:54;99651.81;;;21.72;100.00
23643;BME280;11998;55.788;37.572;2022-08-19T00:30:54;99659.78;;;21.73;100.00
23643;BME280;11998;55.788;37.572;2022-08-19T00:31:55;99656.13;;;21.74;100.00
23643;BME280;11998;55.788;37.572;2022-08-19T00:32:58;99657.19;;;21.72;100.00
23643;BME280;11998;55.788;37.572;2022-08-19T00:33:59;99663.56;;;21.71;100.00
23643;BME280;11998;55.788;37.572;2022-08-19T00:35:00;99665.34;;;21.70;100.00
23643;BME280;11998;55.788;37.572;2022-08-19T00:36:06;99661.03;;;21.67;100.00
23643;BME280;11998;55.788;37.572;2022-08-19T00:37:07;99656.50;;;21.68;100.00
23643;BME280;11998;55.788;37.572;2022-08-19T00:38:08;99667.50;;;21.65;100.00
23643;BME280;11998;55.788;37.572;2022-08-19T00:39:09;99665.66;;;21.65;100.00
23643;BME280;11998;55.788;37.572;2022-08-19T00:40:11;99678.50;;;21.62;100.00
23643;BME280;11998;55.788;37.572;2022-08-19T00:41:15;99665.97;;;21.61;100.00
23643;BME280;11998;55.788;37.572;2022-08-19T00:42:19;99662.69;;;21.56;100.00
23643;BME280;11998;55.788;37.572;2022-08-19T00:43:24;99666.16;;;21.58;100.00
23643;BME280;11998;55.788;37.572;2022-08-19T00:44:27;99667.13;;;21.57;100.00
23643;BME280;11998;55.788;37.572;2022-08-19T00:45:28;99668.06;;;21.56;100.00
23643;BME280;11998;55.788;37.572;2022-08-19T00:46:32;99672.44;;;21.58;100.00
23643;BME280;11998;55.788;37.572;2022-08-19T00:47:33;99667.41;;;21.52;100.00
23643;BME280;11998;55.788;37.572;2022-08-19T00:48:34;99670.22;;;21.51;100.00
23643;BME280;11998;55.788;37.572;2022-08-19T00:50:02;99671.94;;;21.52;100.00
23643;BME280;11998;55.788;37.572;2022-08-19T00:51:04;99672.16;;;21.49;100.00
23643;BME280;11998;55.788;37.572;2022-08-19T00:52:13;99674.94;;;21.47;100.00
23643;BME280;11998;55.788;37.572;2022-08-19T00:53:16;99679.28;;;21.50;100.00
23643;BME280;11998;55.788;37.572;2022-08-19T00:54:19;99673.88;;;21.50;100.00
23643;BME280;11998;55.788;37.572;2022-08-19T00:55:24;99673.22;;;21.46;100.00
23643;BME280;11998;55.788;37.572;2022-08-19T00:56:25;99679.47;;;21.47;100.00
23643;BME280;11998;55.788;37.572;2022-08-19T00:57:36;99683.13;;;21.46;100.00
23643;BME280;11998;55.788;37.572;2022-08-19T00:58:37;99681.56;;;21.42;100.00
23643;BME280;11998;55.788;37.572;2022-08-19T00:59:39;99683.41;;;21.41;100.00
23643;BME280;11998;55.788;37.572;2022-08-19T01:00:41;99681.78;;;21.38;100.00
23643;BME280;11998;55.788;37.572;2022-08-19T01:01:42;99678.31;;;21.36;100.00
23643;BME280;11998;55.788;37.572;2022-08-19T01:02:44;99687.38;;;21.35;100.00
23643;BME280;11998;55.788;37.572;2022-08-19T01:03:45;99683.72;;;21.36;100.00
23643;BME280;11998;55.788;37.572;2022-08-19T01:04:45;99677.34;;;21.37;100.00
23643;BME280;11998;55.788;37.572;2022-08-19T01:05:47;99683.97;;;21.32;100.00
23643;BME280;11998;55.788;37.572;2022-08-19T01:06:49;99686.66;;;21.32;100.00
23643;BME280;11998;55.788;37.572;2022-08-19T01:07:50;99680.25;;;21.34;100.00
23643;BME280;11998;55.788;37.572;2022-08-19T01:08:51;99670.44;;;21.33;100.00
23643;BME280;11998;55.788;37.572;2022-08-19T01:09:52;99679.75;;;21.28;100.00
23643;BME280;11998;55.788;37.572;2022-08-19T01:10:56;99685.25;;;21.26;100.00
23643;BME280;11998;55.788;37.572;2022-08-19T01:11:58;99675.44;;;21.25;100.00
23643;BME280;11998;55.788;37.572;2022-08-19T01:12:59;99686.22;;;21.25;100.00
23643;BME280;11998;55.788;37.572;2022-08-19T01:14:01;99687.13;;;21.24;100.00
23643;BME280;11998;55.788;37.572;2022-08-19T01:15:05;99688.09;;;21.23;100.00
23643;BME280;11998;55.788;37.572;2022-08-19T01:16:09;99688.28;;;21.20;100.00
23643;BME280;11998;55.788;37.572;2022-08-19T01:17:11;99691.75;;;21.22;100.00
23643;BME280;11998;55.788;37.572;2022-08-19T01:18:13;99697.22;;;21.21;100.00
23643;BME280;11998;55.788;37.572;2022-08-19T01:19:26;99697.50;;;21.16;100.00
23643;BME280;11998;55.788;37.572;2022-08-19T01:20:27;99702.03;;;21.16;100.00
23643;BME280;11998;55.788;37.572;2022-08-19T01:21:34;99704.84;;;21.14;100.00
23643;BME280;11998;55.788;37.572;2022-08-19T01:22:47;99706.75;;;21.12;100.00
23643;BME280;11998;55.788;37.572;2022-08-19T01:23:48;99709.66;;;21.09;100.00
23643;BME280;11998;55.788;37.572;2022-08-19T01:24:50;99713.47;;;21.05;100.00
23643;BME280;11998;55.788;37.572;2022-08-19T01:25:52;99719.06;;;21.02;100.00
23643;BME280;11998;55.788;37.572;2022-08-19T01:26:54;99712.91;;;21.00;100.00
23643;BME280;11998;55.788;37.572;2022-08-19T01:27:55;99714.81;;;20.98;100.00
23643;BME280;11998;55.788;37.572;2022-08-19T01:28:57;99709.44;;;20.98;100.00
23643;BME280;11998;55.788;37.572;2022-08-19T01:29:58;99713.25;;;20.94;100.00
23643;BME280;11998;55.788;37.572;2022-08-19T01:30:58;99714.97;;;20.95;100.00
23643;BME280;11998;55.788;37.572;2022-08-19T01:32:00;99713.25;;;20.94;100.00
23643;BME280;11998;55.788;37.572;2022-08-19T01:33:02;99710.00;;;20.89;100.00
23643;BME280;11998;55.788;37.572;2022-08-19T01:34:06;99711.72;;;20.90;100.00
23643;BME280;11998;55.788;37.572;2022-08-19T01:35:08;99706.34;;;20.90;100.00
23643;BME280;11998;55.788;37.572;2022-08-19T01:36:12;99705.47;;;20.89;100.00
23643;BME280;11998;55.788;37.572;2022-08-19T01:37:14;99703.06;;;20.85;100.00
23643;BME280;11998;55.788;37.572;2022-08-19T01:38:26;99709.66;;;20.79;100.00
23643;BME280;11998;55.788;37.572;2022-08-19T01:39:27;99708.91;;;20.77;100.00
23643;BME280;11998;55.788;37.572;2022-08-19T01:40:31;99718.13;;;20.73;100.00
23643;BME280;11998;55.788;37.572;2022-08-19T01:41:33;99696.69;;;20.71;100.00
23643;BME280;11998;55.788;37.572;2022-08-19T01:42:34;99711.16;;;20.69;100.00
23643;BME280;11998;55.788;37.572;2022-08-19T01:43:35;99707.63;;;20.68;100.00
23643;BME280;11998;55.788;37.572;2022-08-19T01:44:37;99706.75;;;20.68;100.00
23643;BME280;11998;55.788;37.572;2022-08-19T01:45:38;99714.91;;;20.66;100.00
23643;BME280;11998;55.788;37.572;2022-08-19T01:46:41;99712.31;;;20.65;100.00
23643;BME280;11998;55.788;37.572;2022-08-19T01:47:41;99709.91;;;20.60;100.00
23643;BME280;11998;55.788;37.572;2022-08-19T01:48:45;99705.31;;;20.62;100.00
23643;BME280;11998;55.788;37.572;2022-08-19T01:49:45;99715.47;;;20.57;100.00
23643;BME280;11998;55.788;37.572;2022-08-19T01:50:46;99703.72;;;20.58;100.00
23643;BME280;11998;55.788;37.572;2022-08-19T01:51:48;99706.41;;;20.58;100.00
23643;BME280;11998;55.788;37.572;2022-08-19T01:52:49;99711.81;;;20.58;100.00
23643;BME280;11998;55.788;37.572;2022-08-19T01:53:51;99704.69;;;20.57;100.00
23643;BME280;11998;55.788;37.572;2022-08-19T01:54:52;99710.06;;;20.57;100.00
23643;BME280;11998;55.788;37.572;2022-08-19T01:55:52;99710.44;;;20.51;100.00
23643;BME280;11998;55.788;37.572;2022-08-19T01:56:59;99709.69;;;20.49;100.00
23643;BME280;11998;55.788;37.572;2022-08-19T01:58:04;99704.88;;;20.54;100.00
23643;BME280;11998;55.788;37.572;2022-08-19T01:59:11;99710.44;;;20.51;100.00
23643;BME280;11998;55.788;37.572;2022-08-19T02:00:13;99705.06;;;20.51;100.00
23643;BME280;11998;55.788;37.572;2022-08-19T02:01:16;99709.59;;;20.50;100.00
23643;BME280;11998;55.788;37.572;2022-08-19T02:02:17;99707.16;;;20.46;100.00
23643;BME280;11998;55.788;37.572;2022-08-19T02:03:18;99705.41;;;20.45;100.00
23643;BME280;11998;55.788;37.572;2022-08-19T02:04:18;99711.75;;;20.44;100.00
23643;BME280;11998;55.788;37.572;2022-08-19T02:05:19;99708.91;;;20.47;100.00
23643;BME280;11998;55.788;37.572;2022-08-19T02:06:21;99705.25;;;20.48;100.00
23643;BME280;11998;55.788;37.572;2022-08-19T02:07:22;99702.38;;;20.51;100.00
23643;BME280;11998;55.788;37.572;2022-08-19T02:08:23;99703.16;;;20.53;100.00
23643;BME280;11998;55.788;37.572;2022-08-19T02:09:23;99704.09;;;20.52;100.00
23643;BME280;11998;55.788;37.572;2022-08-19T02:10:24;99703.34;;;20.50;100.00
23643;BME280;11998;55.788;37.572;2022-08-19T02:11:31;99697.09;;;20.49;100.00
23643;BME280;11998;55.788;37.572;2022-08-19T02:12:32;99705.25;;;20.48;100.00
23643;BME280;11998;55.788;37.572;2022-08-19T02:13:33;99703.34;;;20.50;100.00
23643;BME280;11998;55.788;37.572;2022-08-19T02:14:36;99717.75;;;20.49;100.00
23643;BME280;11998;55.788;37.572;2022-08-19T02:15:36;99709.69;;;20.49;100.00
23643;BME280;11998;55.788;37.572;2022-08-19T02:16:37;99714.09;;;20.50;100.00
23643;BME280;11998;55.788;37.572;2022-08-19T02:17:39;99712.47;;;20.47;100.00
23643;BME280;11998;55.788;37.572;2022-08-19T02:18:39;99717.66;;;20.50;100.00
23643;BME280;11998;55.788;37.572;2022-08-19T02:19:39;99715.66;;;20.54;100.00
23643;BME280;11998;55.788;37.572;2022-08-19T02:20:42;99714.78;;;20.53;100.00
23643;BME280;11998;55.788;37.572;2022-08-19T02:21:43;99721.91;;;20.55;100.00
23643;BME280;11998;55.788;37.572;2022-08-19T02:22:44;99715.75;;;20.52;100.00
23643;BME280;11998;55.788;37.572;2022-08-19T02:23:45;99719.31;;;20.53;100.00
23643;BME280;11998;55.788;37.572;2022-08-19T02:24:46;99701.41;;;20.52;100.00
23643;BME280;11998;55.788;37.572;2022-08-19T02:25:48;99711.31;;;20.51;100.00
23643;BME280;11998;55.788;37.572;2022-08-19T02:26:48;99705.25;;;20.48;100.00
23643;BME280;11998;55.788;37.572;2022-08-19T02:27:49;99708.81;;;20.48;100.00
23643;BME280;11998;55.788;37.572;2022-08-19T02:28:49;99718.09;;;20.43;100.00
23643;BME280;11998;55.788;37.572;2022-08-19T02:29:50;99719.94;;;20.42;100.00
23643;BME280;11998;55.788;37.572;2022-08-19T02:30:51;99721.75;;;20.42;100.00
23643;BME280;11998;55.788;37.572;2022-08-19T02:31:51;99716.19;;;20.45;100.00
23643;BME280;11998;55.788;37.572;2022-08-19T02:32:52;99719.69;;;20.47;100.00
23643;BME280;11998;55.788;37.572;2022-08-19T02:33:54;99726.16;;;20.43;100.00
23643;BME280;11998;55.788;37.572;2022-08-19T02:34:55;99734.59;;;20.37;100.00
23643;BME280;11998;55.788;37.572;2022-08-19T02:35:56;99728.25;;;20.38;100.00
23643;BME280;11998;55.788;37.572;2022-08-19T02:36:56;99723.63;;;20.40;100.00
23643;BME280;11998;55.788;37.572;2022-08-19T02:37:57;99737.38;;;20.35;100.00
23643;BME280;11998;55.788;37.572;2022-08-19T02:39:16;99731.56;;;20.43;100.00
23643;BME280;11998;55.788;37.572;2022-08-19T02:40:17;99739.63;;;20.43;100.00
23643;BME280;11998;55.788;37.572;2022-08-19T02:41:21;99741.59;;;20.39;100.00
23643;BME280;11998;55.788;37.572;2022-08-19T02:42:22;99740.59;;;20.42;100.00
23643;BME280;11998;55.788;37.572;2022-08-19T02:43:23;99735.81;;;20.47;100.00
23643;BME280;11998;55.788;37.572;2022-08-19T02:44:24;99738.56;;;20.45;100.00
23643;BME280;11998;55.788;37.572;2022-08-19T02:45:25;99739.28;;;20.49;100.00
23643;BME280;11998;55.788;37.572;2022-08-19T02:46:28;99740.84;;;20.53;100.00
23643;BME280;11998;55.788;37.572;2022-08-19T02:47:29;99743.44;;;20.55;100.00
23643;BME280;11998;55.788;37.572;2022-08-19T02:48:29;99740.84;;;20.53;100.00
23643;BME280;11998;55.788;37.572;2022-08-19T02:49:31;99739.78;;;20.56;100.00
23643;BME280;11998;55.788;37.572;2022-08-19T02:50:32;99738.56;;;20.61;100.00
23643;BME280;11998;55.788;37.572;2022-08-19T02:51:35;99743.94;;;20.61;100.00
23643;BME280;11998;55.788;37.572;2022-08-19T02:52:36;99736.91;;;20.59;100.00
23643;BME280;11998;55.788;37.572;2022-08-19T02:53:37;99750.19;;;20.62;100.00
23643;BME280;11998;55.788;37.572;2022-08-19T02:54:37;99750.00;;;20.65;100.00
23643;BME280;11998;55.788;37.572;2022-08-19T02:55:47;99742.63;;;20.68;100.00
23643;BME280;11998;55.788;37.572;2022-08-19T02:56:48;99746.06;;;20.70;100.00
23643;BME280;11998;55.788;37.572;2022-08-19T02:57:49;99743.03;;;20.76;100.00
23643;BME280;11998;55.788;37.572;2022-08-19T02:58:49;99735.91;;;20.75;100.00
23643;BME280;11998;55.788;37.572;2022-08-19T02:59:50;99731.75;;;20.70;100.00
23643;BME280;11998;55.788;37.572;2022-08-19T03:00:53;99728.91;;;20.73;100.00
23643;BME280;11998;55.788;37.572;2022-08-19T03:01:54;99734.09;;;20.76;100.00
23643;BME280;11998;55.788;37.572;2022-08-19T03:02:55;99736.88;;;20.74;100.00
23643;BME280;11998;55.788;37.572;2022-08-19T03:03:57;99728.09;;;20.71;100.00
23643;BME280;11998;55.788;37.572;2022-08-19T03:04:58;99736.09;;;20.72;100.00
23643;BME280;11998;55.788;37.572;2022-08-19T03:06:10;99735.72;;;20.78;100.00
23643;BME280;11998;55.788;37.572;2022-08-19T03:07:14;99733.66;;;20.84;100.00
23643;BME280;11998;55.788;37.572;2022-08-19T03:08:15;99728.63;;;20.77;100.00
23643;BME280;11998;55.788;37.572;2022-08-19T03:09:17;99737.47;;;20.79;100.00
23643;BME280;11998;55.788;37.572;2022-08-19T03:10:18;99738.31;;;20.80;100.00
23643;BME280;11998;55.788;37.572;2022-08-19T03:11:24;99734.66;;;20.81;100.00
23643;BME280;11998;55.788;37.572;2022-08-19T03:12:25;99731.03;;;20.82;100.00
23643;BME280;11998;55.788;37.572;2022-08-19T03:13:26;99735.72;;;20.78;100.00
23643;BME280;11998;55.788;37.572;2022-08-19T03:14:26;99740.94;;;20.81;100.00
23643;BME280;11998;55.788;37.572;2022-08-19T03:15:30;99731.88;;;20.82;100.00
23643;BME280;11998;55.788;37.572;2022-08-19T03:16:33;99739.81;;;20.86;100.00
23643;BME280;11998;55.788;37.572;2022-08-19T03:17:35;99745.56;;;20.94;100.00
23643;BME280;11998;55.788;37.572;2022-08-19T03:18:35;99743.84;;;20.93;100.00
23643;BME280;11998;55.788;37.572;2022-08-19T03:19:36;99743.66;;;20.96;100.00
23643;BME280;11998;55.788;37.572;2022-08-19T03:20:56;99742.78;;;20.95;100.00
23643;BME280;11998;55.788;37.572;2022-08-19T03:21:57;99741.56;;;21.01;100.00
23643;BME280;11998;55.788;37.572;2022-08-19T03:22:58;99747.16;;;20.98;100.00
23643;BME280;11998;55.788;37.572;2022-08-19T03:24:05;99743.66;;;20.96;100.00
23643;BME280;11998;55.788;37.572;2022-08-19T03:25:06;99747.81;;;21.01;100.00
23643;BME280;11998;55.788;37.572;2022-08-19T03:26:06;99745.69;;;21.06;100.00
23643;BME280;11998;55.788;37.572;2022-08-19T03:27:07;99740.41;;;21.05;100.00
23643;BME280;11998;55.788;37.572;2022-08-19T03:28:08;99747.72;;;21.03;100.00
23643;BME280;11998;55.788;37.572;2022-08-19T03:29:08;99744.84;;;21.06;100.00
23643;BME280;11998;55.788;37.572;2022-08-19T03:30:11;99742.91;;;21.08;100.00
23643;BME280;11998;55.788;37.572;2022-08-19T03:31:13;99743.09;;;21.05;100.00
23643;BME280;11998;55.788;37.572;2022-08-19T03:32:14;99743.00;;;21.06;100.00
23643;BME280;11998;55.788;37.572;2022-08-19T03:33:14;99747.72;;;21.03;100.00
23643;BME280;11998;55.788;37.572;2022-08-19T03:34:20;99734.81;;;21.08;100.00
23643;BME280;11998;55.788;37.572;2022-08-19T03:35:21;99746.50;;;21.08;100.00
23643;BME280;11998;55.788;37.572;2022-08-19T03:36:24;99732.94;;;21.10;100.00
23643;BME280;11998;55.788;37.572;2022-08-19T03:37:24;99739.28;;;21.09;100.00
23643;BME280;11998;55.788;37.572;2022-08-19T03:38:26;99748.69;;;21.02;100.00
23643;BME280;11998;55.788;37.572;2022-08-19T03:39:27;99746.19;;;20.99;100.00
23643;BME280;11998;55.788;37.572;2022-08-19T03:40:27;99743.00;;;21.06;100.00
23643;BME280;11998;55.788;37.572;2022-08-19T03:41:33;99740.63;;;21.16;100.00
23643;BME280;11998;55.788;37.572;2022-08-19T03:42:36;99745.50;;;21.25;100.00
23643;BME280;11998;55.788;37.572;2022-08-19T03:43:39;99745.81;;;21.19;100.00
23643;BME280;11998;55.788;37.572;2022-08-19T03:44:40;99738.16;;;21.27;100.00
23643;BME280;11998;55.788;37.572;2022-08-19T03:45:42;99753.47;;;21.27;100.00
23643;BME280;11998;55.788;37.572;2022-08-19T03:46:43;99746.16;;;21.29;100.00
23643;BME280;11998;55.788;37.572;2022-08-19T03:47:43;99741.28;;;21.35;100.00
23643;BME280;11998;55.788;37.572;2022-08-19T03:48:47;99742.69;;;21.41;100.00
23643;BME280;11998;55.788;37.572;2022-08-19T03:49:48;99737.03;;;21.46;100.00
23643;BME280;11998;55.788;37.572;2022-08-19T03:50:48;99740.69;;;21.45;100.00
23643;BME280;11998;55.788;37.572;2022-08-19T03:51:50;99739.91;;;21.57;100.00
23643;BME280;11998;55.788;37.572;2022-08-19T03:52:51;99737.81;;;21.62;100.00
23643;BME280;11998;55.788;37.572;2022-08-19T03:53:53;99738.78;;;21.47;100.00
23643;BME280;11998;55.788;37.572;2022-08-19T03:54:54;99744.53;;;21.55;100.00
23643;BME280;11998;55.788;37.572;2022-08-19T03:55:56;99742.81;;;21.54;100.00
23643;BME280;11998;55.788;37.572;2022-08-19T03:56:57;99734.16;;;21.49;100.00
23643;BME280;11998;55.788;37.572;2022-08-19T03:57:58;99735.88;;;21.64;100.00
23643;BME280;11998;55.788;37.572;2022-08-19T03:58:59;99737.88;;;21.75;100.00
23643;BME280;11998;55.788;37.572;2022-08-19T04:00:00;99736.38;;;21.71;100.00
23643;BME280;11998;55.788;37.572;2022-08-19T04:01:01;99737.22;;;21.71;100.00
23643;BME280;11998;55.788;37.572;2022-08-19T04:02:06;99736.94;;;21.76;100.00
23643;BME280;11998;55.788;37.572;2022-08-19T04:03:09;99739.91;;;21.85;100.00
23643;BME280;11998;55.788;37.572;2022-08-19T04:04:09;99738.34;;;21.95;100.00
23643;BME280;11998;55.788;37.572;2022-08-19T04:05:10;99737.75;;;21.90;100.00
23643;BME280;11998;55.788;37.572;2022-08-19T04:07:18;99747.25;;;21.83;100.00
23643;BME280;11998;55.788;37.572;2022-08-19T04:08:21;99743.75;;;21.81;100.00
23643;BME280;11998;55.788;37.572;2022-08-19T04:09:22;99738.19;;;21.84;100.00
23643;BME280;11998;55.788;37.572;2022-08-19T04:10:23;99742.63;;;21.71;100.00
23643;BME280;11998;55.788;37.572;2022-08-19T04:11:27;99751.38;;;21.75;100.00
23643;BME280;11998;55.788;37.572;2022-08-19T04:12:28;99751.06;;;21.79;100.00
23643;BME280;11998;55.788;37.572;2022-08-19T04:13:29;99750.69;;;21.85;100.00
23643;BME280;11998;55.788;37.572;2022-08-19T04:14:29;99742.31;;;21.90;100.00
23643;BME280;11998;55.788;37.572;2022-08-19T04:15:31;99743.09;;;21.78;100.00
23643;BME280;11998;55.788;37.572;2022-08-19T04:16:35;99753.56;;;21.96;100.00
23643;BME280;11998;55.788;37.572;2022-08-19T04:17:36;99747.97;;;21.99;100.00
23643;BME280;11998;55.788;37.572;2022-08-19T04:18:38;99741.41;;;22.18;100.00
23643;BME280;11998;55.788;37.572;2022-08-19T04:19:39;99733.47;;;22.29;100.00
23643;BME280;11998;55.788;37.572;2022-08-19T04:20:46;99738.38;;;22.37;100.00
23643;BME280;11998;55.788;37.572;2022-08-19T04:21:50;99740.69;;;22.55;100.00
23643;BME280;11998;55.788;37.572;2022-08-19T04:22:51;99742.03;;;22.63;100.00
23643;BME280;11998;55.788;37.572;2022-08-19T04:23:51;99739.88;;;22.68;100.00
23643;BME280;11998;55.788;37.572;2022-08-19T04:24:52;99734.72;;;22.77;99.85
23643;BME280;11998;55.788;37.572;2022-08-19T04:25:53;99742.47;;;22.96;98.19
23643;BME280;11998;55.788;37.572;2022-08-19T04:26:54;99739.34;;;23.02;97.22
23643;BME280;11998;55.788;37.572;2022-08-19T04:27:54;99741.75;;;23.07;96.58
23643;BME280;11998;55.788;37.572;2022-08-19T04:28:55;99732.22;;;23.14;95.53
23643;BME280;11998;55.788;37.572;2022-08-19T04:29:55;99746.47;;;23.16;95.65
23643;BME280;11998;55.788;37.572;2022-08-19T04:30:56;99736.97;;;23.10;95.20
23643;BME280;11998;55.788;37.572;2022-08-19T04:31:57;99743.88;;;23.14;95.12
23643;BME280;11998;55.788;37.572;2022-08-19T04:32:58;99741.53;;;23.23;93.98
23643;BME280;11998;55.788;37.572;2022-08-19T04:34:00;99743.16;;;23.38;92.89
23643;BME280;11998;55.788;37.572;2022-08-19T04:35:02;99738.97;;;23.59;91.80
23643;BME280;11998;55.788;37.572;2022-08-19T04:36:03;99742.66;;;23.58;91.07
23643;BME280;11998;55.788;37.572;2022-08-19T04:37:05;99744.25;;;23.48;91.02
23643;BME280;11998;55.788;37.572;2022-08-19T04:38:08;99742.81;;;23.55;91.11
23643;BME280;11998;55.788;37.572;2022-08-19T04:39:13;99739.81;;;23.72;89.52
23643;BME280;11998;55.788;37.572;2022-08-19T04:40:14;99742.16;;;23.90;87.39
23643;BME280;11998;55.788;37.572;2022-08-19T04:41:50;99746.03;;;23.98;86.04
23643;BME280;11998;55.788;37.572;2022-08-19T04:43:09;99744.88;;;24.26;84.24
23643;BME280;11998;55.788;37.572;2022-08-19T04:44:13;99748.47;;;24.51;81.95
23643;BME280;11998;55.788;37.572;2022-08-19T04:45:14;99739.13;;;24.55;80.58
23643;BME280;11998;55.788;37.572;2022-08-19T04:46:15;99727.13;;;24.35;80.46
23643;BME280;11998;55.788;37.572;2022-08-19T04:47:17;99741.44;;;24.72;79.24
23643;BME280;11998;55.788;37.572;2022-08-19T04:48:17;99743.53;;;24.69;79.16
23643;BME280;11998;55.788;37.572;2022-08-19T04:49:23;99737.84;;;24.96;76.77
23643;BME280;11998;55.788;37.572;2022-08-19T04:50:27;99751.53;;;24.94;76.42
23643;BME280;11998;55.788;37.572;2022-08-19T04:51:28;99751.47;;;25.07;75.79
23643;BME280;11998;55.788;37.572;2022-08-19T04:52:31;99735.88;;;24.98;75.15
23643;BME280;11998;55.788;37.572;2022-08-19T04:53:33;99748.78;;;25.18;74.74
23643;BME280;11998;55.788;37.572;2022-08-19T04:54:34;99746.72;;;25.33;73.59
23643;BME280;11998;55.788;37.572;2022-08-19T04:55:39;99740.06;;;25.48;71.45
23643;BME280;11998;55.788;37.572;2022-08-19T04:56:40;99748.22;;;25.59;70.68
23643;BME280;11998;55.788;37.572;2022-08-19T04:57:40;99752.84;;;25.81;69.53
23643;BME280;11998;55.788;37.572;2022-08-19T04:58:43;99750.13;;;25.92;67.12
23643;BME280;11998;55.788;37.572;2022-08-19T04:59:44;99745.78;;;26.01;66.39
23643;BME280;11998;55.788;37.572;2022-08-19T05:00:45;99749.34;;;26.01;65.46
23643;BME280;11998;55.788;37.572;2022-08-19T05:01:46;99748.41;;;25.80;67.24
23643;BME280;11998;55.788;37.572;2022-08-19T05:02:49;99743.59;;;26.49;64.21
23643;BME280;11998;55.788;37.572;2022-08-19T05:03:50;99751.31;;;26.65;61.91
23643;BME280;11998;55.788;37.572;2022-08-19T05:04:57;99743.50;;;26.83;60.71
23643;BME280;11998;55.788;37.572;2022-08-19T05:06:11;99737.50;;;27.42;57.73
23643;BME280;11998;55.788;37.572;2022-08-19T05:07:12;99746.34;;;27.86;55.49
23643;BME280;11998;55.788;37.572;2022-08-19T05:08:18;99739.56;;;28.20;53.97
23643;BME280;11998;55.788;37.572;2022-08-19T05:09:19;99743.97;;;28.61;51.98
23643;BME280;11998;55.788;37.572;2022-08-19T05:10:21;99746.94;;;28.29;52.20
23643;BME280;11998;55.788;37.572;2022-08-19T05:11:25;99742.81;;;28.64;50.09
23643;BME280;11998;55.788;37.572;2022-08-19T05:12:26;99742.88;;;29.03;49.47
23643;BME280;11998;55.788;37.572;2022-08-19T05:13:28;99747.09;;;29.44;47.95
23643;BME280;11998;55.788;37.572;2022-08-19T05:14:29;99736.47;;;29.50;47.12
23643;BME280;11998;55.788;37.572;2022-08-19T05:15:31;99741.06;;;29.50;46.83
23643;BME280;11998;55.788;37.572;2022-08-19T05:16:31;99733.88;;;29.59;46.82
23643;BME280;11998;55.788;37.572;2022-08-19T05:17:32;99741.66;;;29.44;46.30
23643;BME280;11998;55.788;37.572;2022-08-19T05:18:33;99746.81;;;29.37;46.21
23643;BME280;11998;55.788;37.572;2022-08-19T05:19:52;99734.72;;;29.59;46.38
23643;BME280;11998;55.788;37.572;2022-08-19T05:21:12;99735.06;;;30.21;44.99
23643;BME280;11998;55.788;37.572;2022-08-19T05:22:32;99725.88;;;30.12;45.01
23643;BME280;11998;55.788;37.572;2022-08-19T05:23:35;99730.59;;;30.20;44.14
23643;BME280;11998;55.788;37.572;2022-08-19T05:24:36;99737.22;;;29.90;44.20